Time;durP1;ratioP1;P1;durP2;ratioP2;P2;SDS_P1;SDS_P2;PMS_P1;PMS_P2;Temp;Humidity;BMP_temperature;BMP_pressure;BME280_temperature;BME280_humidity;BME280_pressure;Samples;Min_cycle;Max_cycle;Signal;HPM_P1;HPM_P2
2021/05/09 07:01:18;;;;;;;2.97;1.55;;;;;;;21.02;43.32;98259.31;5501106;23;20111;-73
2021/05/09 07:03:44;;;;;;;1.73;1.40;;;;;;;21.09;42.96;98259.75;4937318;29;20048;-73
2021/05/09 07:06:09;;;;;;;2.95;1.98;;;;;;;21.16;42.69;98257.50;4937224;29;20023;-72
2021/05/09 07:08:34;;;;;;;3.30;1.52;;;;;;;21.42;43.34;98259.22;4937189;29;20102;-73
2021/05/09 07:11:01;;;;;;;4.05;1.73;;;;;;;20.83;42.19;98260.66;4937148;29;20038;-72
2021/05/09 07:13:27;;;;;;;3.42;1.20;;;;;;;20.72;42.07;98264.03;4937057;29;20469;-72
2021/05/09 07:15:52;;;;;;;1.70;1.60;;;;;;;20.64;42.44;98261.06;4937477;29;20031;-73
2021/05/09 07:18:21;;;;;;;2.17;1.73;;;;;;;22.84;39.60;98259.31;4937138;29;20026;-72
2021/05/09 07:20:52;;;;;;;2.15;1.83;;;;;;;20.91;41.85;98255.72;4937177;29;20477;-72
2021/05/09 07:23:17;;;;;;;2.33;1.58;;;;;;;21.12;41.52;98254.25;4936963;29;20027;-72
2021/05/09 07:25:42;;;;;;;2.05;1.48;;;;;;;21.39;41.73;98254.16;4937003;29;20053;-72
2021/05/09 07:28:10;;;;;;;1.92;1.40;;;;;;;22.84;39.57;98246.09;4936589;29;20036;-72
2021/05/09 07:30:37;;;;;;;4.05;1.60;;;;;;;23.87;37.14;98245.16;4936856;29;20063;-72
2021/05/09 07:33:02;;;;;;;6.30;1.17;;;;;;;24.91;36.66;98244.47;4936797;29;20185;-72
2021/05/09 07:35:28;;;;;;;1.58;1.10;;;;;;;25.21;35.82;98241.88;4936889;29;20477;-73
2021/05/09 07:37:53;;;;;;;1.52;1.40;;;;;;;24.54;36.76;98237.81;4935284;29;20032;-73
2021/05/09 07:40:20;;;;;;;1.83;1.08;;;;;;;26.27;33.88;98240.47;4936677;29;20090;-73
2021/05/09 07:42:46;;;;;;;2.67;1.05;;;;;;;25.62;34.71;98232.09;4936504;29;20035;-73
2021/05/09 07:45:17;;;;;;;1.73;1.40;;;;;;;26.59;33.36;98234.88;4936681;29;20023;-73
2021/05/09 07:47:44;;;;;;;4.03;1.48;;;;;;;26.28;34.02;98240.31;4936481;29;20087;-73
2021/05/09 07:50:10;;;;;;;1.52;1.40;;;;;;;24.88;35.16;98233.16;4936426;29;20110;-72
2021/05/09 07:52:36;;;;;;;4.32;1.70;;;;;;;25.81;34.07;98226.00;4919453;29;20023;-73
2021/05/09 07:55:01;;;;;;;3.15;1.45;;;;;;;25.89;34.33;98224.34;4936425;29;20099;-72
2021/05/09 07:57:27;;;;;;;4.43;1.58;;;;;;;26.63;34.54;98220.31;4936136;29;20095;-73
2021/05/09 07:59:52;;;;;;;9.95;1.48;;;;;;;26.37;33.57;98215.56;4936216;29;20374;-73
2021/05/09 08:02:20;;;;;;;2.95;1.40;;;;;;;26.08;33.94;98220.06;4936104;29;20036;-73
2021/05/09 08:04:45;;;;;;;5.13;1.42;;;;;;;26.31;33.86;98216.13;4936401;29;20074;-72
2021/05/09 08:07:11;;;;;;;2.30;1.25;;;;;;;26.94;32.77;98204.19;4935900;29;20114;-72
2021/05/09 08:09:36;;;;;;;2.15;1.20;;;;;;;30.48;28.24;98199.25;4936086;29;20136;-73
2021/05/09 08:12:01;;;;;;;1.67;1.10;;;;;;;28.82;29.29;98199.84;4936011;29;20710;-73
2021/05/09 08:14:27;;;;;;;1.98;1.05;;;;;;;28.28;30.89;98199.06;4936039;29;20031;-73
2021/05/09 08:16:53;;;;;;;1.90;1.15;;;;;;;28.04;31.03;98198.84;4935802;29;20031;-73
2021/05/09 08:19:18;;;;;;;1.25;1.15;;;;;;;30.52;28.73;98181.03;4936191;29;20128;-73
2021/05/09 08:21:43;;;;;;;1.30;1.20;;;;;;;30.40;28.76;98189.38;4936134;29;20664;-73
2021/05/09 08:24:09;;;;;;;1.55;0.80;;;;;;;30.78;26.93;98184.34;4935795;29;20031;-73
2021/05/09 08:26:34;;;;;;;1.20;1.05;;;;;;;29.87;28.02;98185.28;4935857;29;20107;-73
2021/05/09 08:29:00;;;;;;;3.10;1.40;;;;;;;28.33;30.14;98188.78;4935667;29;20024;-73
2021/05/09 08:31:25;;;;;;;3.20;1.10;;;;;;;31.11;27.64;98176.22;4935850;29;20027;-73
2021/05/09 08:33:50;;;;;;;2.25;1.20;;;;;;;32.45;25.73;98167.94;4935673;29;20032;-74
2021/05/09 08:36:16;;;;;;;2.03;1.08;;;;;;;33.99;23.68;98165.31;4935424;29;20552;-73
2021/05/09 08:38:41;;;;;;;3.20;1.10;;;;;;;33.43;23.22;98157.00;4935663;29;20047;-74
2021/05/09 08:41:07;;;;;;;0.98;0.88;;;;;;;34.47;22.20;98165.50;4935442;29;20034;-74
2021/05/09 08:43:32;;;;;;;2.42;0.70;;;;;;;33.47;22.82;98158.28;4931234;29;20039;-76
2021/05/09 08:45:59;;;;;;;1.85;0.93;;;;;;;34.82;21.41;98156.69;4943683;29;20396;-73
2021/05/09 08:48:25;;;;;;;3.67;0.80;;;;;;;36.01;20.41;98152.63;4936098;29;20028;-73
2021/05/09 08:50:51;;;;;;;1.90;0.77;;;;;;;34.24;20.28;98146.06;4935014;29;20034;-73
2021/05/09 08:53:17;;;;;;;0.95;0.80;;;;;;;35.60;19.19;98143.81;4922677;29;20031;-71
2021/05/09 08:55:44;;;;;;;4.88;0.60;;;;;;;35.68;17.97;98138.22;4947507;29;20079;-71
2021/05/09 08:58:11;;;;;;;1.80;1.00;;;;;;;34.46;20.07;98142.34;4945420;29;20055;-71
2021/05/09 09:00:36;;;;;;;1.15;0.70;;;;;;;36.57;18.93;98146.03;4940184;29;20024;-71
2021/05/09 09:03:04;;;;;;;0.85;0.60;;;;;;;36.75;16.43;98135.44;4936429;29;20366;-70
2021/05/09 09:05:37;;;;;;;0.85;0.65;;;;;;;35.45;18.09;98130.47;4949194;29;20026;-71
2021/05/09 09:08:02;;;;;;;1.08;0.82;;;;;;;36.69;17.87;98132.72;4944081;29;20023;-71
2021/05/09 09:10:40;;;;;;;1.20;0.52;;;;;;;36.82;16.78;98119.19;4941232;29;20044;-71
2021/05/09 09:13:28;;;;;;;1.30;0.60;;;;;;;34.39;18.80;98125.28;4950886;29;20102;-70
2021/05/09 09:15:58;;;;;;;0.90;0.68;;;;;;;36.53;17.86;98115.94;4942978;29;20555;-71
2021/05/09 09:18:40;;;;;;;0.75;0.60;;;;;;;37.61;16.91;98119.97;4941764;29;20031;-70
2021/05/09 09:21:35;;;;;;;1.77;0.98;;;;;;;37.17;15.42;98108.09;4950680;29;20031;-70
2021/05/09 09:24:04;;;;;;;3.47;0.60;;;;;;;35.99;18.21;98116.97;4927399;29;20378;-70
2021/05/09 09:26:48;;;;;;;1.35;0.82;;;;;;;37.20;16.62;98110.38;4940796;29;20043;-70
2021/05/09 09:29:38;;;;;;;1.25;0.73;;;;;;;37.58;15.83;98098.78;4950500;29;20421;-71
2021/05/09 09:32:09;;;;;;;0.73;0.65;;;;;;;38.21;15.62;98105.00;4944073;29;20066;-71
2021/05/09 09:34:46;;;;;;;1.63;0.90;;;;;;;36.85;15.18;98091.78;4940201;29;20082;-70
2021/05/09 09:37:14;;;;;;;1.27;0.70;;;;;;;34.54;17.08;98090.22;4949792;29;20156;-70
2021/05/09 09:39:45;;;;;;;;;;;;;;;34.42;17.38;98092.59;4947804;29;20429;-71
2021/05/09 09:42:11;;;;;;;2.22;0.70;;;;;;;37.31;15.31;98085.38;4945156;29;19910;-71
2021/05/09 09:44:36;;;;;;;1.80;0.80;;;;;;;38.08;14.33;98083.44;4953718;29;20499;-70
2021/05/09 09:47:02;;;;;;;2.58;0.50;;;;;;;37.11;14.24;98079.22;4951901;29;20054;-70
2021/05/09 09:49:30;;;;;;;1.00;0.55;;;;;;;37.92;14.39;98074.00;4951932;29;20439;-70
2021/05/09 09:51:57;;;;;;;2.13;0.80;;;;;;;37.40;14.13;98073.28;4951972;29;20036;-70
2021/05/09 09:54:35;;;;;;;2.05;1.00;;;;;;;36.89;15.25;98074.06;4951838;29;20111;-70
2021/05/09 09:57:02;;;;;;;1.58;0.68;;;;;;;35.77;16.69;98061.50;4953133;29;20036;-70
2021/05/09 09:59:28;;;;;;;1.45;0.80;;;;;;;35.71;14.75;98055.06;4953850;28;20027;-70
2021/05/09 10:01:53;;;;;;;1.70;0.80;;;;;;;36.91;13.88;98055.84;4957082;29;20451;-70
2021/05/09 10:04:19;;;;;;;2.67;0.57;;;;;;;36.84;14.72;98054.97;4957385;29;20093;-70
2021/05/09 10:06:45;;;;;;;1.85;0.70;;;;;;;36.76;13.98;98047.13;4957386;29;20056;-70
2021/05/09 10:09:10;;;;;;;1.33;0.68;;;;;;;35.39;15.24;98053.94;4957287;29;20477;-70
2021/05/09 10:11:36;;;;;;;1.92;0.70;;;;;;;35.89;14.55;98051.78;4957534;29;20069;-70
2021/05/09 10:14:03;;;;;;;1.65;0.50;;;;;;;34.30;15.83;98040.38;4957242;29;20038;-70
2021/05/09 10:16:30;;;;;;;1.65;0.68;;;;;;;34.63;15.30;98029.00;4957159;29;20023;-70
2021/05/09 10:19:01;;;;;;;0.88;0.70;;;;;;;35.52;14.90;98029.75;4957160;29;20019;-70
2021/05/09 10:21:34;;;;;;;1.45;1.00;;;;;;;35.94;14.78;98033.13;4957174;29;20031;-70
2021/05/09 10:24:24;;;;;;;3.08;0.88;;;;;;;36.22;15.34;98018.59;4957312;29;20447;-70
2021/05/09 10:27:05;;;;;;;2.13;1.23;;;;;;;34.61;15.51;98025.66;4957063;29;20023;-69
2021/05/09 10:29:35;;;;;;;0.80;0.60;;;;;;;34.64;15.38;98025.28;4956960;29;20494;-70
2021/05/09 10:32:35;;;;;;;0.70;0.50;;;;;;;33.37;15.86;98030.66;4957254;29;20035;-70
2021/05/09 10:35:07;;;;;;;1.85;0.73;;;;;;;36.41;14.60;98022.25;4956907;29;20027;-70
2021/05/09 10:37:36;;;;;;;2.63;0.73;;;;;;;36.87;13.57;98011.34;4956917;29;20090;-70
2021/05/09 10:40:35;;;;;;;1.60;0.77;;;;;;;36.92;12.85;98008.88;4956819;29;20086;-70
2021/05/09 10:43:04;;;;;;;7.05;1.15;;;;;;;36.05;14.42;98002.00;4956959;29;20031;-70
2021/05/09 10:45:30;;;;;;;1.02;0.93;;;;;;;35.75;15.06;98002.41;4956685;29;20031;-69
2021/05/09 10:48:13;;;;;;;2.92;0.80;;;;;;;35.65;14.21;98009.25;4956597;29;20106;-70
2021/05/09 10:50:39;;;;;;;1.65;0.55;;;;;;;34.50;15.36;98014.44;4956483;29;20548;-70
2021/05/09 10:53:04;;;;;;;0.60;0.60;;;;;;;33.31;16.62;98013.41;4954827;29;20122;-70
2021/05/09 10:55:35;;;;;;;0.80;0.70;;;;;;;35.75;14.86;97996.19;4955152;29;20127;-70
2021/05/09 10:58:01;;;;;;;1.05;0.63;;;;;;;36.04;14.55;98001.19;4954729;29;20408;-70
2021/05/09 11:00:27;;;;;;;2.20;0.75;;;;;;;37.01;14.33;97996.75;4954559;29;20050;-70
2021/05/09 11:02:52;;;;;;;1.20;0.65;;;;;;;36.45;14.12;97997.38;4954772;29;20122;-70
2021/05/09 11:05:18;;;;;;;1.38;0.63;;;;;;;38.04;12.95;97991.06;4954982;29;20027;-70
2021/05/09 11:07:44;;;;;;;3.60;0.60;;;;;;;38.11;14.34;97982.06;4956162;29;20472;-70
2021/05/09 11:10:28;;;;;;;1.88;1.02;;;;;;;35.52;14.52;97986.63;4956182;29;20019;-70
2021/05/09 11:13:09;;;;;;;2.53;0.70;;;;;;;37.18;13.76;97985.44;4956123;29;20055;-70
2021/05/09 11:15:35;;;;;;;1.15;0.77;;;;;;;37.11;14.19;97990.91;4956369;29;20444;-70
2021/05/09 11:18:12;;;;;;;2.03;0.73;;;;;;;36.09;15.13;97975.44;4956124;29;20508;-70
2021/05/09 11:20:50;;;;;;;3.22;0.80;;;;;;;36.04;14.56;97979.59;4956238;29;20027;-70
2021/05/09 11:23:15;;;;;;;4.03;0.60;;;;;;;35.13;15.37;97970.38;4956232;29;20023;-70
2021/05/09 11:25:40;;;;;;;2.13;0.68;;;;;;;35.26;15.05;97970.41;4956055;29;20062;-70
2021/05/09 11:28:06;;;;;;;2.85;0.65;;;;;;;34.98;15.25;97971.38;4955947;29;20027;-70
2021/05/09 11:30:35;;;;;;;1.52;0.60;;;;;;;35.08;15.54;97967.47;4955975;29;20400;-70
2021/05/09 11:33:00;;;;;;;1.95;1.02;;;;;;;36.98;13.98;97969.34;4955964;29;20027;-70
2021/05/09 11:35:39;;;;;;;0.60;0.60;;;;;;;34.62;16.36;97968.13;4955906;29;20042;-70
2021/05/09 11:38:15;;;;;;;4.03;0.70;;;;;;;35.21;14.29;97956.75;4955729;29;20122;-70
2021/05/09 11:40:41;;;;;;;0.80;0.68;;;;;;;34.71;15.31;97962.34;4955608;29;20035;-70
2021/05/09 11:43:13;;;;;;;1.02;0.60;;;;;;;35.11;15.34;97953.63;4955858;29;20027;-70
2021/05/09 11:45:39;;;;;;;0.70;0.70;;;;;;;36.08;14.64;97952.22;4955752;29;20024;-70
2021/05/09 11:48:04;;;;;;;2.65;0.70;;;;;;;36.40;14.25;97953.97;4955509;29;20366;-70
2021/05/09 11:50:30;;;;;;;1.27;0.73;;;;;;;34.39;15.81;97931.56;4955564;29;20085;-70
2021/05/09 11:52:55;;;;;;;3.55;0.70;;;;;;;33.88;15.46;97937.25;4955516;29;20162;-70
2021/05/09 11:55:22;;;;;;;0.90;0.70;;;;;;;33.85;15.90;97934.97;4955730;29;20062;-70
2021/05/09 11:57:47;;;;;;;0.43;0.43;;;;;;;33.42;16.34;97929.69;4955485;29;20125;-69
2021/05/09 12:00:17;;;;;;;0.80;0.60;;;;;;;32.89;17.87;97917.56;4955266;29;20076;-70
2021/05/09 12:02:47;;;;;;;0.73;0.60;;;;;;;32.25;17.70;97920.88;4955545;29;20027;-69
2021/05/09 12:05:17;;;;;;;1.95;0.85;;;;;;;32.26;18.51;97919.06;4955395;29;20030;-70
2021/05/09 12:07:54;;;;;;;3.38;0.75;;;;;;;31.46;18.07;97920.53;4955197;29;20038;-70
2021/05/09 12:10:31;;;;;;;0.90;0.70;;;;;;;31.38;18.96;97913.41;4955202;29;20055;-70
2021/05/09 12:13:05;;;;;;;1.10;0.60;;;;;;;30.89;18.41;97913.72;4955395;29;20042;-69
2021/05/09 12:15:33;;;;;;;0.70;0.70;;;;;;;30.88;19.22;97903.22;4955111;29;20493;-69
2021/05/09 12:17:59;;;;;;;0.75;0.70;;;;;;;31.10;18.53;97904.25;4954973;29;20548;-69
2021/05/09 12:20:44;;;;;;;1.20;0.60;;;;;;;31.10;17.99;97896.22;4954998;29;20027;-70
2021/05/09 12:23:25;;;;;;;5.90;1.15;;;;;;;31.33;18.95;97889.03;4954460;28;20106;-70
2021/05/09 12:25:51;;;;;;;1.45;0.82;;;;;;;31.44;19.10;97885.91;4955005;29;20119;-70
2021/05/09 12:28:22;;;;;;;3.13;0.95;;;;;;;31.58;18.83;97880.75;4954737;29;20026;-69
2021/05/09 12:30:49;;;;;;;2.25;0.63;;;;;;;31.15;18.41;97872.41;4954982;29;20470;-69
2021/05/09 12:33:28;;;;;;;2.30;0.85;;;;;;;31.30;18.83;97877.84;4955006;29;20073;-70
2021/05/09 12:35:55;;;;;;;1.30;0.63;;;;;;;31.28;19.24;97878.00;4954820;29;20111;-70
2021/05/09 12:38:29;;;;;;;1.42;0.80;;;;;;;30.38;19.17;97878.59;4954707;29;20031;-69
2021/05/09 12:41:03;;;;;;;1.10;0.82;;;;;;;30.13;19.14;97879.72;4954643;29;20499;-69
2021/05/09 12:43:45;;;;;;;1.85;0.90;;;;;;;29.89;19.25;97870.75;4954888;29;20034;-70
2021/05/09 12:46:32;;;;;;;4.03;1.20;;;;;;;29.80;19.58;97865.59;4954388;29;20115;-69
2021/05/09 12:49:12;;;;;;;0.82;0.70;;;;;;;30.37;20.27;97860.06;4954627;29;20031;-69
2021/05/09 12:51:59;;;;;;;1.95;1.00;;;;;;;30.64;20.03;97862.22;4937275;29;20035;-70
2021/05/09 12:54:46;;;;;;;0.60;0.60;;;;;;;30.69;19.32;97859.00;4954603;29;20492;-69
2021/05/09 12:57:31;;;;;;;0.88;0.75;;;;;;;31.19;19.31;97852.31;4954458;29;20031;-70
2021/05/09 13:00:02;;;;;;;1.20;1.13;;;;;;;31.64;19.39;97855.91;4954509;29;20016;-70
2021/05/09 13:02:31;;;;;;;2.60;0.60;;;;;;;30.91;19.03;97847.50;4954274;29;20094;-70
2021/05/09 13:05:11;;;;;;;;;;;;;;;30.57;19.65;97839.03;4954769;29;20027;-70
2021/05/09 13:07:36;;;;;;;3.92;0.57;;;;;;;30.74;19.73;97845.97;4954219;29;19910;-69
2021/05/09 13:10:02;;;;;;;1.67;0.70;;;;;;;30.94;19.25;97838.28;4936915;29;20162;-69
2021/05/09 13:12:27;;;;;;;1.75;0.50;;;;;;;30.41;19.01;97835.47;4954218;29;20481;-70
2021/05/09 13:14:56;;;;;;;1.02;0.50;;;;;;;30.59;19.48;97837.00;4954166;29;20082;-70
2021/05/09 13:17:23;;;;;;;2.83;1.13;;;;;;;30.80;19.85;97834.56;4954484;29;20035;-72
2021/05/09 13:19:51;;;;;;;1.13;0.80;;;;;;;30.73;18.97;97838.94;4954166;29;20055;-72
2021/05/09 13:22:16;;;;;;;1.38;0.82;;;;;;;30.53;19.07;97824.34;4954286;29;20027;-72
2021/05/09 13:24:46;;;;;;;1.70;0.63;;;;;;;30.07;18.90;97832.25;4954205;29;20027;-72
2021/05/09 13:27:12;;;;;;;0.95;0.60;;;;;;;30.63;19.03;97827.63;4953990;29;20488;-70
2021/05/09 13:29:37;;;;;;;0.70;0.60;;;;;;;30.58;19.71;97820.13;4953901;29;20159;-70
2021/05/09 13:32:03;;;;;;;0.57;0.45;;;;;;;30.92;20.11;97822.41;4953863;29;20056;-70
2021/05/09 13:34:28;;;;;;;1.40;0.70;;;;;;;30.83;19.49;97818.13;4954025;28;20050;-72
2021/05/09 13:36:53;;;;;;;1.33;1.08;;;;;;;31.07;19.25;97824.28;4953780;29;20045;-72
2021/05/09 13:39:19;;;;;;;1.25;1.00;;;;;;;30.77;19.07;97813.50;4953923;29;20033;-72
2021/05/09 13:41:44;;;;;;;2.25;1.50;;;;;;;30.81;20.45;97812.16;4953998;29;20485;-72
2021/05/09 13:44:10;;;;;;;1.77;0.60;;;;;;;30.71;19.11;97808.88;4953929;29;20113;-72
2021/05/09 13:46:35;;;;;;;1.98;0.90;;;;;;;30.89;19.72;97806.72;4953754;29;20023;-70
2021/05/09 13:49:01;;;;;;;3.70;0.90;;;;;;;30.96;19.18;97801.47;4953826;29;20550;-70
2021/05/09 13:51:27;;;;;;;1.48;0.60;;;;;;;30.90;20.05;97803.03;4953652;29;20377;-70
2021/05/09 13:53:52;;;;;;;4.70;0.55;;;;;;;31.17;20.58;97792.75;4953853;29;20158;-70
2021/05/09 13:56:18;;;;;;;0.90;0.60;;;;;;;31.06;19.16;97795.88;4953726;29;20031;-70
2021/05/09 13:58:44;;;;;;;0.82;0.70;;;;;;;31.02;20.36;97787.38;4953784;29;20477;-70
2021/05/09 14:01:10;;;;;;;3.72;0.70;;;;;;;31.34;20.40;97775.56;4953535;29;20118;-70
2021/05/09 14:03:35;;;;;;;2.40;0.82;;;;;;;30.33;21.10;97779.38;4953785;29;20097;-70
2021/05/09 14:06:01;;;;;;;1.65;0.60;;;;;;;30.39;20.58;97781.31;4953629;29;20462;-70
2021/05/09 14:08:26;;;;;;;1.02;0.52;;;;;;;30.24;19.92;97775.09;4953556;29;20035;-70
2021/05/09 14:10:51;;;;;;;2.75;0.47;;;;;;;30.21;19.93;97770.06;4953849;29;20488;-70
2021/05/09 14:13:18;;;;;;;2.78;0.77;;;;;;;29.36;21.93;97762.75;4953732;29;20405;-70
2021/05/09 14:15:46;;;;;;;1.27;0.80;;;;;;;29.58;21.19;97757.69;4953595;29;20064;-72
2021/05/09 14:18:11;;;;;;;5.40;1.08;;;;;;;30.54;20.55;97753.81;4953499;29;20032;-72
2021/05/09 14:20:36;;;;;;;3.58;0.77;;;;;;;30.94;20.92;97750.81;4953472;29;20034;-72
2021/05/09 14:23:02;;;;;;;3.58;0.77;;;;;;;31.11;19.82;97748.00;4953481;29;20027;-72
2021/05/09 14:25:27;;;;;;;1.77;0.70;;;;;;;31.11;19.92;97739.97;4953506;29;20012;-71
2021/05/09 14:27:53;;;;;;;0.80;0.70;;;;;;;30.58;19.62;97747.09;4953464;29;20116;-72
2021/05/09 14:30:18;;;;;;;2.40;0.80;;;;;;;30.81;21.00;97734.56;4953450;29;20027;-72
2021/05/09 14:32:43;;;;;;;1.02;0.60;;;;;;;30.75;19.23;97740.63;4953460;29;20484;-71
2021/05/09 14:35:10;;;;;;;1.65;0.80;;;;;;;31.13;19.95;97744.09;4953503;29;20024;-71
2021/05/09 14:37:35;;;;;;;3.97;1.50;;;;;;;30.82;20.36;97741.56;4953182;29;20452;-72
2021/05/09 14:40:01;;;;;;;1.60;0.75;;;;;;;30.87;18.72;97727.66;4953479;29;20111;-72
2021/05/09 14:42:26;;;;;;;1.50;0.73;;;;;;;31.26;19.96;97727.41;4953295;29;20473;-72
2021/05/09 14:44:51;;;;;;;1.88;0.70;;;;;;;31.31;19.03;97730.38;4953382;29;20050;-72
2021/05/09 14:47:17;;;;;;;0.85;0.63;;;;;;;30.71;19.15;97734.00;4955513;28;20500;-72
2021/05/09 14:49:43;;;;;;;2.28;0.80;;;;;;;30.37;20.18;97724.53;4956916;29;20027;-72
2021/05/09 14:52:10;;;;;;;1.83;0.70;;;;;;;31.12;18.98;97726.38;4956654;29;20067;-72
2021/05/09 14:54:35;;;;;;;7.25;4.30;;;;;;;31.46;18.92;97717.81;4956661;29;20050;-70
2021/05/09 14:57:00;;;;;;;3.53;0.90;;;;;;;31.42;18.29;97716.53;4956519;29;20106;-70
2021/05/09 14:59:27;;;;;;;2.33;0.60;;;;;;;31.36;19.04;97711.94;4956629;29;20031;-70
2021/05/09 15:01:53;;;;;;;0.35;0.35;;;;;;;31.04;19.13;97706.91;4956455;29;20038;-70
2021/05/09 15:04:18;;;;;;;1.73;0.60;;;;;;;31.02;19.33;97706.25;4956646;29;20023;-70
2021/05/09 15:06:44;;;;;;;3.30;0.98;;;;;;;30.91;19.60;97699.53;4956206;29;20056;-70
2021/05/09 15:09:09;;;;;;;1.60;0.70;;;;;;;30.82;20.34;97696.09;4956418;29;20078;-70
2021/05/09 15:11:34;;;;;;;2.58;1.10;;;;;;;31.11;20.26;97708.66;4956351;29;20035;-70
2021/05/09 15:14:00;;;;;;;0.75;0.75;;;;;;;30.81;20.72;97702.47;4956377;29;20030;-70
2021/05/09 15:16:25;;;;;;;2.15;0.40;;;;;;;30.86;18.89;97700.06;4956108;29;20035;-70
2021/05/09 15:18:51;;;;;;;1.70;0.63;;;;;;;30.63;20.66;97696.59;4956293;29;20070;-70
2021/05/09 15:21:16;;;;;;;0.70;0.70;;;;;;;30.58;20.41;97690.94;4956282;29;20023;-72
2021/05/09 15:23:42;;;;;;;1.35;1.25;;;;;;;30.52;21.41;97680.97;4956112;29;20031;-70
2021/05/09 15:26:07;;;;;;;1.67;0.70;;;;;;;30.49;20.67;97686.69;4956227;29;20042;-70
2021/05/09 15:28:32;;;;;;;2.28;0.95;;;;;;;30.31;19.61;97685.13;4955984;29;20054;-70
2021/05/09 15:30:58;;;;;;;1.02;0.60;;;;;;;30.71;19.72;97683.19;4956052;29;20039;-70
2021/05/09 15:33:23;;;;;;;1.58;0.70;;;;;;;30.79;20.48;97677.72;4955993;29;20070;-70
2021/05/09 15:35:48;;;;;;;1.95;1.20;;;;;;;30.59;20.08;97676.56;4955946;29;20034;-70
2021/05/09 15:38:14;;;;;;;0.68;0.68;;;;;;;30.29;19.91;97671.13;4955835;29;20027;-70
2021/05/09 15:40:39;;;;;;;0.50;0.50;;;;;;;30.30;20.40;97672.78;4938819;29;20027;-70
2021/05/09 15:43:05;;;;;;;1.08;0.73;;;;;;;30.09;20.64;97664.59;4955751;29;20034;-69
2021/05/09 15:45:30;;;;;;;3.10;0.75;;;;;;;29.86;20.11;97668.06;4955912;29;20070;-69
2021/05/09 15:47:57;;;;;;;3.10;1.10;;;;;;;29.62;21.12;97678.91;4955575;29;20038;-70
2021/05/09 15:50:22;;;;;;;3.90;1.48;;;;;;;29.60;21.12;97675.59;4938565;29;20027;-70
2021/05/09 15:52:47;;;;;;;1.52;0.60;;;;;;;29.60;21.20;97670.25;4955583;29;20038;-70
2021/05/09 15:55:13;;;;;;;0.60;0.60;;;;;;;29.78;21.95;97665.44;4955679;29;20023;-70
2021/05/09 15:57:38;;;;;;;1.98;1.77;;;;;;;30.19;20.96;97665.22;4954426;28;20547;-70
2021/05/09 16:00:05;;;;;;;1.83;1.67;;;;;;;29.95;21.04;97664.34;4955506;29;20050;-70
2021/05/09 16:02:30;;;;;;;2.00;1.63;;;;;;;30.09;20.52;97659.25;4955262;29;20030;-70
2021/05/09 16:04:55;;;;;;;3.10;0.70;;;;;;;30.40;19.93;97651.16;4955452;29;20031;-69
2021/05/09 16:07:21;;;;;;;3.28;0.80;;;;;;;30.45;20.36;97641.56;4955237;29;20031;-70
2021/05/09 16:09:46;;;;;;;0.63;0.63;;;;;;;30.68;20.96;97649.56;4955454;29;20026;-70
2021/05/09 16:12:11;;;;;;;2.03;0.82;;;;;;;30.59;20.99;97645.28;4955261;29;20219;-70
2021/05/09 16:14:37;;;;;;;1.35;0.90;;;;;;;30.59;20.74;97647.16;4955285;29;20031;-70
2021/05/09 16:17:02;;;;;;;1.40;0.90;;;;;;;30.44;21.28;97642.59;4955093;29;20031;-70
2021/05/09 16:19:27;;;;;;;1.75;0.98;;;;;;;30.13;22.11;97645.38;4954939;29;20038;-70
2021/05/09 16:21:53;;;;;;;1.40;0.90;;;;;;;29.63;22.35;97637.84;4954467;29;20031;-70
2021/05/09 16:24:23;;;;;;;1.00;0.90;;;;;;;29.66;22.98;97637.50;4933513;29;20063;-70
2021/05/09 16:26:49;;;;;;;3.42;0.98;;;;;;;29.74;22.87;97633.91;4946251;29;20030;-70
2021/05/09 16:29:15;;;;;;;1.60;0.80;;;;;;;29.58;22.72;97632.19;4935409;29;20028;-72
2021/05/09 16:31:41;;;;;;;1.00;0.90;;;;;;;29.56;23.10;97632.38;4938694;29;20416;-72
2021/05/09 16:34:06;;;;;;;1.15;0.90;;;;;;;29.48;23.24;97634.22;4939708;29;20035;-72
2021/05/09 16:36:32;;;;;;;4.35;1.02;;;;;;;29.35;23.31;97632.97;4945290;29;20435;-72
2021/05/09 16:38:57;;;;;;;1.77;0.75;;;;;;;29.39;23.01;97631.59;4941332;29;20023;-72
2021/05/09 16:41:23;;;;;;;0.80;0.70;;;;;;;29.45;23.29;97630.91;4942721;29;20036;-74
2021/05/09 16:43:49;;;;;;;1.02;0.80;;;;;;;29.24;23.71;97633.34;4950239;29;20094;-74
2021/05/09 16:46:15;;;;;;;2.45;0.82;;;;;;;29.32;23.38;97629.81;4942868;29;20106;-71
2021/05/09 16:48:40;;;;;;;2.47;1.10;;;;;;;29.30;23.05;97627.31;4943370;29;20385;-71
2021/05/09 16:51:05;;;;;;;2.42;1.10;;;;;;;28.91;23.39;97633.44;4949718;29;20027;-70
2021/05/09 16:53:47;;;;;;;1.92;0.95;;;;;;;29.02;23.22;97628.78;4938428;29;20102;-70
2021/05/09 16:56:13;;;;;;;3.83;1.00;;;;;;;29.59;22.40;97625.84;4946881;29;20038;-70
2021/05/09 16:58:38;;;;;;;2.53;0.98;;;;;;;29.38;22.44;97632.59;4946004;29;20027;-71
2021/05/09 17:01:04;;;;;;;2.35;0.93;;;;;;;29.64;22.39;97623.47;4939947;29;20024;-71
2021/05/09 17:03:29;;;;;;;3.58;1.00;;;;;;;29.76;22.30;97635.44;4950854;29;20465;-71
2021/05/09 17:05:54;;;;;;;2.60;0.98;;;;;;;29.77;22.08;97628.25;4939874;29;20401;-71
2021/05/09 17:08:20;;;;;;;1.90;0.82;;;;;;;29.80;22.49;97630.56;4945679;29;20027;-71
2021/05/09 17:10:45;;;;;;;2.40;1.40;;;;;;;29.41;22.51;97634.09;4946199;29;20058;-70
2021/05/09 17:13:19;;;;;;;3.90;1.10;;;;;;;29.63;21.89;97616.47;4938970;29;20032;-70
2021/05/09 17:15:45;;;;;;;2.55;0.70;;;;;;;28.99;22.00;97619.28;4923085;29;20024;-70
2021/05/09 17:18:10;;;;;;;1.17;0.90;;;;;;;28.78;23.13;97622.47;4948641;29;20023;-71
2021/05/09 17:20:35;;;;;;;1.33;1.10;;;;;;;28.60;23.51;97632.50;4943466;29;20042;-71
2021/05/09 17:23:01;;;;;;;1.10;1.00;;;;;;;28.29;23.53;97632.38;4941097;29;20031;-71
2021/05/09 17:25:26;;;;;;;0.98;0.80;;;;;;;28.36;23.01;97634.22;4918672;29;20091;-70
2021/05/09 17:27:51;;;;;;;1.77;0.90;;;;;;;28.15;23.53;97625.88;4949094;29;20067;-71
2021/05/09 17:30:17;;;;;;;1.27;0.88;;;;;;;28.14;23.12;97624.19;4942528;29;20560;-71
2021/05/09 17:32:43;;;;;;;4.57;1.40;;;;;;;28.07;23.30;97624.03;4942443;29;20083;-70
2021/05/09 17:35:09;;;;;;;1.75;1.20;;;;;;;27.83;24.37;97622.19;4933597;29;20068;-75
2021/05/09 17:37:34;;;;;;;3.15;0.93;;;;;;;27.80;23.85;97624.34;4950387;29;20023;-73
2021/05/09 17:40:01;;;;;;;1.20;0.80;;;;;;;27.52;24.35;97623.78;4936841;29;20111;-73
2021/05/09 17:42:26;;;;;;;1.42;0.98;;;;;;;27.51;24.14;97622.09;4943621;29;20031;-77
2021/05/09 17:44:51;;;;;;;2.50;1.20;;;;;;;27.35;25.10;97623.72;4941077;29;20042;-76
2021/05/09 17:47:18;;;;;;;1.92;0.93;;;;;;;27.28;25.59;97619.22;4950118;29;20027;-73
2021/05/09 17:49:43;;;;;;;5.63;1.58;;;;;;;27.06;25.35;97624.06;4922487;29;20015;-72
2021/05/09 17:52:09;;;;;;;2.08;1.15;;;;;;;26.90;25.56;97624.84;4946764;29;20038;-72
2021/05/09 17:54:34;;;;;;;2.83;1.00;;;;;;;26.78;25.96;97619.94;4944591;29;20473;-71
2021/05/09 17:56:59;;;;;;;1.90;1.27;;;;;;;26.59;26.02;97626.31;4940019;29;20115;-71
2021/05/09 17:59:25;;;;;;;3.53;1.38;;;;;;;26.50;26.58;97617.47;4950128;29;20026;-71
2021/05/09 18:01:50;;;;;;;1.30;1.20;;;;;;;26.48;26.60;97618.59;4938669;29;20042;-71
2021/05/09 18:04:15;;;;;;;2.95;1.40;;;;;;;26.49;27.41;97626.41;4945928;29;20055;-72
2021/05/09 18:06:41;;;;;;;1.27;0.80;;;;;;;26.27;28.15;97617.13;4945366;29;20020;-70
2021/05/09 18:09:06;;;;;;;2.28;1.25;;;;;;;26.09;28.70;97618.97;4938957;29;20437;-69
2021/05/09 18:11:31;;;;;;;1.85;1.30;;;;;;;25.94;29.55;97626.63;4950190;29;20596;-69
2021/05/09 18:13:58;;;;;;;2.83;1.35;;;;;;;25.84;29.31;97620.56;4939102;29;20015;-69
2021/05/09 18:16:35;;;;;;;4.00;1.73;;;;;;;25.73;29.61;97626.91;4944660;29;20111;-69
2021/05/09 18:24:33;;;;;;;4.50;2.03;;;;;;;25.07;29.57;97621.88;4947139;29;20131;-68
2021/05/09 18:26:58;;;;;;;1.92;1.40;;;;;;;25.00;30.12;97620.78;4951231;29;20110;-69
2021/05/09 18:29:24;;;;;;;2.65;1.58;;;;;;;24.86;30.06;97620.25;4941006;29;20024;-69
2021/05/09 18:31:49;;;;;;;4.97;1.77;;;;;;;24.71;30.39;97619.06;4952766;29;20091;-70
2021/05/09 18:34:16;;;;;;;1.50;1.40;;;;;;;24.55;30.87;97629.41;4932134;29;20024;-70
2021/05/09 18:36:42;;;;;;;1.67;1.27;;;;;;;24.45;30.78;97628.59;4929656;29;20034;-70
2021/05/09 18:39:07;;;;;;;3.78;1.42;;;;;;;24.35;30.81;97632.06;4927684;29;20393;-70
2021/05/09 18:41:32;;;;;;;2.20;1.48;;;;;;;24.16;31.07;97636.56;4929537;29;20328;-70
2021/05/09 18:43:58;;;;;;;4.43;1.52;;;;;;;24.06;31.56;97625.97;4927604;29;20916;-70